sensor_id;sensor_type;location;lat;lon;timestamp;temperature;humidity
54429;DHT22;40337;52.978;6.310;2024-03-29T00:00:03;9.30;99.90
54429;DHT22;40337;52.978;6.310;2024-03-29T00:02:29;9.30;99.90
54429;DHT22;40337;52.978;6.310;2024-03-29T00:04:55;9.30;99.90
54429;DHT22;40337;52.978;6.310;2024-03-29T00:07:20;9.30;99.90
54429;DHT22;40337;52.978;6.310;2024-03-29T00:09:46;9.30;99.90
54429;DHT22;40337;52.978;6.310;2024-03-29T00:12:12;9.30;99.90
54429;DHT22;40337;52.978;6.310;2024-03-29T00:14:56;9.30;99.90
54429;DHT22;40337;52.978;6.310;2024-03-29T00:17:22;9.30;99.90
54429;DHT22;40337;52.978;6.310;2024-03-29T00:19:47;9.30;99.90
54429;DHT22;40337;52.978;6.310;2024-03-29T00:22:13;9.30;99.90
54429;DHT22;40337;52.978;6.310;2024-03-29T00:24:38;9.40;99.90
54429;DHT22;40337;52.978;6.310;2024-03-29T00:27:04;9.40;99.90
54429;DHT22;40337;52.978;6.310;2024-03-29T00:29:30;9.30;99.90
54429;DHT22;40337;52.978;6.310;2024-03-29T00:31:55;9.40;99.90
54429;DHT22;40337;52.978;6.310;2024-03-29T00:34:21;9.30;99.90
54429;DHT22;40337;52.978;6.310;2024-03-29T00:36:47;9.40;99.90
54429;DHT22;40337;52.978;6.310;2024-03-29T00:39:12;9.40;99.90
54429;DHT22;40337;52.978;6.310;2024-03-29T00:41:38;9.40;99.90
54429;DHT22;40337;52.978;6.310;2024-03-29T00:44:04;9.40;99.90
54429;DHT22;40337;52.978;6.310;2024-03-29T00:46:29;9.40;99.90
54429;DHT22;40337;52.978;6.310;2024-03-29T00:48:55;9.40;99.90
54429;DHT22;40337;52.978;6.310;2024-03-29T00:51:20;9.40;99.90
54429;DHT22;40337;52.978;6.310;2024-03-29T00:53:46;9.30;99.90
54429;DHT22;40337;52.978;6.310;2024-03-29T00:56:12;9.30;99.90
54429;DHT22;40337;52.978;6.310;2024-03-29T00:58:37;9.30;99.90
54429;DHT22;40337;52.978;6.310;2024-03-29T01:01:03;9.40;99.90
54429;DHT22;40337;52.978;6.310;2024-03-29T01:03:29;9.40;99.90
54429;DHT22;40337;52.978;6.310;2024-03-29T01:05:56;9.40;99.90
54429;DHT22;40337;52.978;6.310;2024-03-29T01:08:22;9.40;99.90
54429;DHT22;40337;52.978;6.310;2024-03-29T01:10:49;9.40;99.90
54429;DHT22;40337;52.978;6.310;2024-03-29T01:13:15;9.30;99.90
54429;DHT22;40337;52.978;6.310;2024-03-29T01:15:40;9.30;99.90
54429;DHT22;40337;52.978;6.310;2024-03-29T01:18:06;9.20;99.90
54429;DHT22;40337;52.978;6.310;2024-03-29T01:20:32;9.10;99.90
54429;DHT22;40337;52.978;6.310;2024-03-29T01:22:57;9.10;99.90
54429;DHT22;40337;52.978;6.310;2024-03-29T01:25:23;9.00;99.90
54429;DHT22;40337;52.978;6.310;2024-03-29T01:27:49;9.00;99.90
54429;DHT22;40337;52.978;6.310;2024-03-29T01:30:15;8.90;99.90
54429;DHT22;40337;52.978;6.310;2024-03-29T01:32:41;8.80;99.90
54429;DHT22;40337;52.978;6.310;2024-03-29T01:35:07;8.80;99.90
54429;DHT22;40337;52.978;6.310;2024-03-29T01:37:32;8.80;99.90
54429;DHT22;40337;52.978;6.310;2024-03-29T01:39:59;8.70;99.90
54429;DHT22;40337;52.978;6.310;2024-03-29T01:42:25;8.70;99.90
54429;DHT22;40337;52.978;6.310;2024-03-29T01:44:50;8.70;99.90
54429;DHT22;40337;52.978;6.310;2024-03-29T01:47:17;8.70;99.90
54429;DHT22;40337;52.978;6.310;2024-03-29T01:49:44;8.60;99.90
54429;DHT22;40337;52.978;6.310;2024-03-29T01:52:12;8.60;99.90
54429;DHT22;40337;52.978;6.310;2024-03-29T01:54:38;8.60;99.90
54429;DHT22;40337;52.978;6.310;2024-03-29T01:57:04;8.50;99.90
54429;DHT22;40337;52.978;6.310;2024-03-29T01:59:31;8.50;99.90
54429;DHT22;40337;52.978;6.310;2024-03-29T02:01:58;8.50;99.90
54429;DHT22;40337;52.978;6.310;2024-03-29T02:04:25;8.50;99.90
54429;DHT22;40337;52.978;6.310;2024-03-29T02:06:51;8.50;99.90
54429;DHT22;40337;52.978;6.310;2024-03-29T02:09:17;8.40;99.90
54429;DHT22;40337;52.978;6.310;2024-03-29T02:11:43;8.40;99.90
54429;DHT22;40337;52.978;6.310;2024-03-29T02:14:09;8.40;99.90
54429;DHT22;40337;52.978;6.310;2024-03-29T02:16:34;8.30;99.90
54429;DHT22;40337;52.978;6.310;2024-03-29T02:19:00;8.30;99.90
54429;DHT22;40337;52.978;6.310;2024-03-29T02:21:26;8.40;99.90
54429;DHT22;40337;52.978;6.310;2024-03-29T02:24:06;8.30;99.90
54429;DHT22;40337;52.978;6.310;2024-03-29T02:26:36;8.30;99.90
54429;DHT22;40337;52.978;6.310;2024-03-29T02:29:07;8.30;99.90
54429;DHT22;40337;52.978;6.310;2024-03-29T02:31:32;8.40;99.90
54429;DHT22;40337;52.978;6.310;2024-03-29T02:33:58;8.40;99.90
54429;DHT22;40337;52.978;6.310;2024-03-29T02:36:24;8.30;99.90
54429;DHT22;40337;52.978;6.310;2024-03-29T02:38:49;8.40;99.90
54429;DHT22;40337;52.978;6.310;2024-03-29T02:41:15;8.30;99.90
54429;DHT22;40337;52.978;6.310;2024-03-29T02:43:41;8.30;99.90
54429;DHT22;40337;52.978;6.310;2024-03-29T02:46:07;8.40;99.90
54429;DHT22;40337;52.978;6.310;2024-03-29T02:48:32;8.30;99.90
54429;DHT22;40337;52.978;6.310;2024-03-29T02:50:58;8.30;99.90
54429;DHT22;40337;52.978;6.310;2024-03-29T02:53:23;8.30;99.90
54429;DHT22;40337;52.978;6.310;2024-03-29T02:55:49;8.30;99.90
54429;DHT22;40337;52.978;6.310;2024-03-29T02:58:15;8.30;99.90
54429;DHT22;40337;52.978;6.310;2024-03-29T03:00:40;8.30;99.90
54429;DHT22;40337;52.978;6.310;2024-03-29T03:03:06;8.30;99.90
54429;DHT22;40337;52.978;6.310;2024-03-29T03:05:32;8.30;99.90
54429;DHT22;40337;52.978;6.310;2024-03-29T03:07:58;8.30;99.90
54429;DHT22;40337;52.978;6.310;2024-03-29T03:10:48;8.30;99.90
54429;DHT22;40337;52.978;6.310;2024-03-29T03:13:27;8.40;99.90
54429;DHT22;40337;52.978;6.310;2024-03-29T03:15:53;8.40;99.90
54429;DHT22;40337;52.978;6.310;2024-03-29T03:18:19;8.40;99.90
54429;DHT22;40337;52.978;6.310;2024-03-29T03:20:54;8.40;99.90
54429;DHT22;40337;52.978;6.310;2024-03-29T03:23:21;8.50;99.90
54429;DHT22;40337;52.978;6.310;2024-03-29T03:26:01;8.50;99.90
54429;DHT22;40337;52.978;6.310;2024-03-29T03:28:29;8.50;99.90
54429;DHT22;40337;52.978;6.310;2024-03-29T03:30:55;8.50;99.90
54429;DHT22;40337;52.978;6.310;2024-03-29T03:33:21;8.50;99.90
54429;DHT22;40337;52.978;6.310;2024-03-29T03:35:47;8.50;99.90
54429;DHT22;40337;52.978;6.310;2024-03-29T03:38:13;8.50;99.90
54429;DHT22;40337;52.978;6.310;2024-03-29T03:40:39;8.50;99.90
54429;DHT22;40337;52.978;6.310;2024-03-29T03:43:06;8.50;99.90
54429;DHT22;40337;52.978;6.310;2024-03-29T03:45:36;8.50;99.90
54429;DHT22;40337;52.978;6.310;2024-03-29T03:48:03;8.50;99.90
54429;DHT22;40337;52.978;6.310;2024-03-29T03:50:29;8.50;99.90
54429;DHT22;40337;52.978;6.310;2024-03-29T03:52:55;8.50;99.90
54429;DHT22;40337;52.978;6.310;2024-03-29T03:55:21;8.50;99.90
54429;DHT22;40337;52.978;6.310;2024-03-29T03:57:46;8.40;99.90
54429;DHT22;40337;52.978;6.310;2024-03-29T04:00:12;8.40;99.90
54429;DHT22;40337;52.978;6.310;2024-03-29T04:02:38;8.40;99.90
54429;DHT22;40337;52.978;6.310;2024-03-29T04:05:04;8.40;99.90
54429;DHT22;40337;52.978;6.310;2024-03-29T04:07:30;8.40;99.90
54429;DHT22;40337;52.978;6.310;2024-03-29T04:09:55;8.40;99.90
54429;DHT22;40337;52.978;6.310;2024-03-29T04:12:21;8.40;99.90
54429;DHT22;40337;52.978;6.310;2024-03-29T04:14:47;8.40;99.90
54429;DHT22;40337;52.978;6.310;2024-03-29T04:17:12;8.50;99.90
54429;DHT22;40337;52.978;6.310;2024-03-29T04:19:38;8.50;99.90
54429;DHT22;40337;52.978;6.310;2024-03-29T04:22:04;8.50;99.90
54429;DHT22;40337;52.978;6.310;2024-03-29T04:24:30;8.50;99.90
54429;DHT22;40337;52.978;6.310;2024-03-29T04:26:56;8.50;99.90
54429;DHT22;40337;52.978;6.310;2024-03-29T04:29:22;8.50;99.90
54429;DHT22;40337;52.978;6.310;2024-03-29T04:31:47;8.50;99.90
54429;DHT22;40337;52.978;6.310;2024-03-29T04:34:13;8.50;99.90
54429;DHT22;40337;52.978;6.310;2024-03-29T04:36:39;8.50;99.90
54429;DHT22;40337;52.978;6.310;2024-03-29T04:39:04;8.50;99.90
54429;DHT22;40337;52.978;6.310;2024-03-29T04:41:30;8.50;99.90
54429;DHT22;40337;52.978;6.310;2024-03-29T04:44:00;8.50;99.90
54429;DHT22;40337;52.978;6.310;2024-03-29T04:46:29;8.60;99.90
54429;DHT22;40337;52.978;6.310;2024-03-29T04:48:55;8.60;99.90
54429;DHT22;40337;52.978;6.310;2024-03-29T04:51:21;8.70;99.90
54429;DHT22;40337;52.978;6.310;2024-03-29T04:53:46;8.70;99.90
54429;DHT22;40337;52.978;6.310;2024-03-29T04:56:12;8.80;99.90
54429;DHT22;40337;52.978;6.310;2024-03-29T04:58:38;8.90;99.90
54429;DHT22;40337;52.978;6.310;2024-03-29T05:01:03;8.90;99.90
54429;DHT22;40337;52.978;6.310;2024-03-29T05:03:29;9.00;99.90
54429;DHT22;40337;52.978;6.310;2024-03-29T05:05:56;8.90;99.90
54429;DHT22;40337;52.978;6.310;2024-03-29T05:08:22;9.00;99.90
54429;DHT22;40337;52.978;6.310;2024-03-29T05:10:51;8.90;99.90
54429;DHT22;40337;52.978;6.310;2024-03-29T05:13:17;9.00;99.90
54429;DHT22;40337;52.978;6.310;2024-03-29T05:15:48;9.00;99.90
54429;DHT22;40337;52.978;6.310;2024-03-29T05:18:13;9.00;99.90
54429;DHT22;40337;52.978;6.310;2024-03-29T05:20:39;9.00;99.90
54429;DHT22;40337;52.978;6.310;2024-03-29T05:23:13;9.10;99.90
54429;DHT22;40337;52.978;6.310;2024-03-29T05:25:40;9.00;99.90
54429;DHT22;40337;52.978;6.310;2024-03-29T05:28:06;9.00;99.90
54429;DHT22;40337;52.978;6.310;2024-03-29T05:30:33;9.00;99.90
54429;DHT22;40337;52.978;6.310;2024-03-29T05:33:00;9.00;99.90
54429;DHT22;40337;52.978;6.310;2024-03-29T05:35:25;9.00;99.90
54429;DHT22;40337;52.978;6.310;2024-03-29T05:37:51;9.10;99.90
54429;DHT22;40337;52.978;6.310;2024-03-29T05:40:19;9.10;99.90
54429;DHT22;40337;52.978;6.310;2024-03-29T05:42:44;9.00;99.90
54429;DHT22;40337;52.978;6.310;2024-03-29T05:45:31;9.00;99.90
54429;DHT22;40337;52.978;6.310;2024-03-29T05:47:58;9.00;99.90
54429;DHT22;40337;52.978;6.310;2024-03-29T05:50:25;9.10;99.90
54429;DHT22;40337;52.978;6.310;2024-03-29T05:52:52;9.10;99.90
54429;DHT22;40337;52.978;6.310;2024-03-29T05:55:18;9.10;99.90
54429;DHT22;40337;52.978;6.310;2024-03-29T05:57:44;9.20;99.90
54429;DHT22;40337;52.978;6.310;2024-03-29T06:00:14;9.20;99.90
54429;DHT22;40337;52.978;6.310;2024-03-29T06:02:42;9.20;99.90
54429;DHT22;40337;52.978;6.310;2024-03-29T06:05:10;9.20;99.90
54429;DHT22;40337;52.978;6.310;2024-03-29T06:07:36;9.20;99.90
54429;DHT22;40337;52.978;6.310;2024-03-29T06:10:02;9.20;99.90
54429;DHT22;40337;52.978;6.310;2024-03-29T06:12:31;9.30;99.90
54429;DHT22;40337;52.978;6.310;2024-03-29T06:14:57;9.40;99.90
54429;DHT22;40337;52.978;6.310;2024-03-29T06:17:41;9.40;99.90
54429;DHT22;40337;52.978;6.310;2024-03-29T06:20:07;9.40;99.90
54429;DHT22;40337;52.978;6.310;2024-03-29T06:22:33;9.40;99.90
54429;DHT22;40337;52.978;6.310;2024-03-29T06:24:59;9.40;99.90
54429;DHT22;40337;52.978;6.310;2024-03-29T06:27:30;9.50;99.90
54429;DHT22;40337;52.978;6.310;2024-03-29T06:29:56;9.50;99.90
54429;DHT22;40337;52.978;6.310;2024-03-29T06:32:21;9.50;99.90
54429;DHT22;40337;52.978;6.310;2024-03-29T06:34:47;9.60;99.90
54429;DHT22;40337;52.978;6.310;2024-03-29T06:37:13;9.60;99.90
54429;DHT22;40337;52.978;6.310;2024-03-29T06:39:39;9.60;99.90
54429;DHT22;40337;52.978;6.310;2024-03-29T06:42:05;9.70;99.90
54429;DHT22;40337;52.978;6.310;2024-03-29T06:44:34;9.70;99.90
54429;DHT22;40337;52.978;6.310;2024-03-29T06:47:00;9.70;99.90
54429;DHT22;40337;52.978;6.310;2024-03-29T06:49:25;9.80;99.90
54429;DHT22;40337;52.978;6.310;2024-03-29T06:51:51;9.80;99.90
54429;DHT22;40337;52.978;6.310;2024-03-29T06:54:17;9.80;99.90
54429;DHT22;40337;52.978;6.310;2024-03-29T06:56:50;9.80;99.90
54429;DHT22;40337;52.978;6.310;2024-03-29T06:59:16;9.90;99.90
54429;DHT22;40337;52.978;6.310;2024-03-29T07:01:41;9.90;99.90
54429;DHT22;40337;52.978;6.310;2024-03-29T07:04:07;9.90;99.90
54429;DHT22;40337;52.978;6.310;2024-03-29T07:06:32;9.90;99.90
54429;DHT22;40337;52.978;6.310;2024-03-29T07:08:58;10.00;99.90
54429;DHT22;40337;52.978;6.310;2024-03-29T07:11:24;10.00;99.90
54429;DHT22;40337;52.978;6.310;2024-03-29T07:13:49;10.00;99.90
54429;DHT22;40337;52.978;6.310;2024-03-29T07:16:15;10.00;99.90
54429;DHT22;40337;52.978;6.310;2024-03-29T07:18:41;10.10;99.90
54429;DHT22;40337;52.978;6.310;2024-03-29T07:21:06;10.10;99.90
54429;DHT22;40337;52.978;6.310;2024-03-29T07:23:32;10.10;99.90
54429;DHT22;40337;52.978;6.310;2024-03-29T07:26:03;10.10;99.90
54429;DHT22;40337;52.978;6.310;2024-03-29T07:28:29;10.10;99.90
54429;DHT22;40337;52.978;6.310;2024-03-29T07:30:55;10.10;99.90
54429;DHT22;40337;52.978;6.310;2024-03-29T07:33:22;10.10;99.90
54429;DHT22;40337;52.978;6.310;2024-03-29T07:35:52;10.10;99.90
54429;DHT22;40337;52.978;6.310;2024-03-29T07:38:19;10.20;99.90
54429;DHT22;40337;52.978;6.310;2024-03-29T07:40:46;10.20;99.90
54429;DHT22;40337;52.978;6.310;2024-03-29T07:43:12;10.20;99.90
54429;DHT22;40337;52.978;6.310;2024-03-29T07:45:40;10.30;99.90
54429;DHT22;40337;52.978;6.310;2024-03-29T07:48:07;10.20;99.90
54429;DHT22;40337;52.978;6.310;2024-03-29T07:50:33;10.20;99.90
54429;DHT22;40337;52.978;6.310;2024-03-29T07:52:58;10.20;99.90
54429;DHT22;40337;52.978;6.310;2024-03-29T07:55:24;10.20;99.90
54429;DHT22;40337;52.978;6.310;2024-03-29T07:57:50;10.10;99.90
54429;DHT22;40337;52.978;6.310;2024-03-29T08:00:16;10.10;99.90
54429;DHT22;40337;52.978;6.310;2024-03-29T08:02:41;10.10;99.90
54429;DHT22;40337;52.978;6.310;2024-03-29T08:05:07;10.10;99.90
54429;DHT22;40337;52.978;6.310;2024-03-29T08:07:33;10.20;99.90
54429;DHT22;40337;52.978;6.310;2024-03-29T08:09:58;10.20;99.90
54429;DHT22;40337;52.978;6.310;2024-03-29T08:12:24;10.20;99.90
54429;DHT22;40337;52.978;6.310;2024-03-29T08:14:50;10.20;99.90
54429;DHT22;40337;52.978;6.310;2024-03-29T08:17:15;10.20;99.90
54429;DHT22;40337;52.978;6.310;2024-03-29T08:19:42;10.10;99.90
54429;DHT22;40337;52.978;6.310;2024-03-29T08:22:08;10.20;99.90
54429;DHT22;40337;52.978;6.310;2024-03-29T08:24:36;10.20;99.90
54429;DHT22;40337;52.978;6.310;2024-03-29T08:27:02;10.30;99.90
54429;DHT22;40337;52.978;6.310;2024-03-29T08:29:28;10.40;99.90
54429;DHT22;40337;52.978;6.310;2024-03-29T08:31:54;10.50;99.90
54429;DHT22;40337;52.978;6.310;2024-03-29T08:34:19;10.60;99.90
54429;DHT22;40337;52.978;6.310;2024-03-29T08:36:45;10.60;99.90
54429;DHT22;40337;52.978;6.310;2024-03-29T08:39:11;10.70;99.90
54429;DHT22;40337;52.978;6.310;2024-03-29T08:41:37;10.80;99.90
54429;DHT22;40337;52.978;6.310;2024-03-29T08:44:03;11.10;99.90
54429;DHT22;40337;52.978;6.310;2024-03-29T08:46:28;11.30;99.90
54429;DHT22;40337;52.978;6.310;2024-03-29T08:48:55;11.80;99.90
54429;DHT22;40337;52.978;6.310;2024-03-29T08:51:21;12.10;99.90
54429;DHT22;40337;52.978;6.310;2024-03-29T08:53:46;12.30;99.90
54429;DHT22;40337;52.978;6.310;2024-03-29T08:56:13;12.30;99.90
54429;DHT22;40337;52.978;6.310;2024-03-29T08:58:39;12.20;99.90
54429;DHT22;40337;52.978;6.310;2024-03-29T09:01:04;12.10;99.90
54429;DHT22;40337;52.978;6.310;2024-03-29T09:03:30;12.10;99.90
54429;DHT22;40337;52.978;6.310;2024-03-29T09:05:57;12.20;99.90
54429;DHT22;40337;52.978;6.310;2024-03-29T09:08:23;12.30;99.90
54429;DHT22;40337;52.978;6.310;2024-03-29T09:10:48;12.30;99.90
54429;DHT22;40337;52.978;6.310;2024-03-29T09:13:14;12.30;99.90
54429;DHT22;40337;52.978;6.310;2024-03-29T09:15:40;12.10;99.90
54429;DHT22;40337;52.978;6.310;2024-03-29T09:18:05;12.10;99.90
54429;DHT22;40337;52.978;6.310;2024-03-29T09:20:56;12.10;99.90
54429;DHT22;40337;52.978;6.310;2024-03-29T09:23:23;12.10;99.90
54429;DHT22;40337;52.978;6.310;2024-03-29T09:25:51;11.90;99.90
54429;DHT22;40337;52.978;6.310;2024-03-29T09:28:16;11.90;99.90
54429;DHT22;40337;52.978;6.310;2024-03-29T09:30:42;12.00;99.90
54429;DHT22;40337;52.978;6.310;2024-03-29T09:33:07;12.20;99.90
54429;DHT22;40337;52.978;6.310;2024-03-29T09:35:36;12.10;99.90
54429;DHT22;40337;52.978;6.310;2024-03-29T09:38:02;12.30;99.90
54429;DHT22;40337;52.978;6.310;2024-03-29T09:40:29;12.30;99.90
54429;DHT22;40337;52.978;6.310;2024-03-29T09:42:56;12.50;99.90
54429;DHT22;40337;52.978;6.310;2024-03-29T09:45:33;12.60;99.90
54429;DHT22;40337;52.978;6.310;2024-03-29T09:48:04;12.90;99.90
54429;DHT22;40337;52.978;6.310;2024-03-29T09:50:34;13.40;99.90
54429;DHT22;40337;52.978;6.310;2024-03-29T09:53:06;13.80;99.90
54429;DHT22;40337;52.978;6.310;2024-03-29T09:55:33;13.60;99.90
54429;DHT22;40337;52.978;6.310;2024-03-29T09:58:01;13.30;99.90
54429;DHT22;40337;52.978;6.310;2024-03-29T10:00:28;13.70;99.90
54429;DHT22;40337;52.978;6.310;2024-03-29T10:02:56;14.20;99.90
54429;DHT22;40337;52.978;6.310;2024-03-29T10:05:25;14.20;99.90
54429;DHT22;40337;52.978;6.310;2024-03-29T10:07:52;14.20;99.90
54429;DHT22;40337;52.978;6.310;2024-03-29T10:10:19;14.10;99.90
54429;DHT22;40337;52.978;6.310;2024-03-29T10:12:44;14.10;99.90
54429;DHT22;40337;52.978;6.310;2024-03-29T10:15:10;14.40;99.90
54429;DHT22;40337;52.978;6.310;2024-03-29T10:17:45;14.80;99.90
54429;DHT22;40337;52.978;6.310;2024-03-29T10:20:11;14.90;99.90
54429;DHT22;40337;52.978;6.310;2024-03-29T10:22:44;15.10;99.90
54429;DHT22;40337;52.978;6.310;2024-03-29T10:25:10;15.10;99.90
54429;DHT22;40337;52.978;6.310;2024-03-29T10:27:37;14.80;99.90
54429;DHT22;40337;52.978;6.310;2024-03-29T10:30:03;14.80;99.90
54429;DHT22;40337;52.978;6.310;2024-03-29T10:32:29;14.60;99.90
54429;DHT22;40337;52.978;6.310;2024-03-29T10:34:55;14.30;99.90
54429;DHT22;40337;52.978;6.310;2024-03-29T10:37:21;14.30;99.90
54429;DHT22;40337;52.978;6.310;2024-03-29T10:39:52;14.80;99.90
54429;DHT22;40337;52.978;6.310;2024-03-29T10:42:20;15.20;99.90
54429;DHT22;40337;52.978;6.310;2024-03-29T10:44:48;15.50;99.90
54429;DHT22;40337;52.978;6.310;2024-03-29T10:47:19;15.10;99.90
54429;DHT22;40337;52.978;6.310;2024-03-29T10:49:49;15.20;99.90
54429;DHT22;40337;52.978;6.310;2024-03-29T10:52:17;15.10;99.90
54429;DHT22;40337;52.978;6.310;2024-03-29T10:54:47;14.80;99.90
54429;DHT22;40337;52.978;6.310;2024-03-29T10:57:28;15.20;99.90
54429;DHT22;40337;52.978;6.310;2024-03-29T11:05:10;15.40;99.90
54429;DHT22;40337;52.978;6.310;2024-03-29T11:07:40;15.30;99.90
54429;DHT22;40337;52.978;6.310;2024-03-29T11:10:13;15.40;99.90
54429;DHT22;40337;52.978;6.310;2024-03-29T11:15:49;14.90;99.90
54429;DHT22;40337;52.978;6.310;2024-03-29T11:18:17;15.30;99.90
54429;DHT22;40337;52.978;6.310;2024-03-29T11:20:47;15.60;99.90
54429;DHT22;40337;52.978;6.310;2024-03-29T11:23:18;15.70;99.90
54429;DHT22;40337;52.978;6.310;2024-03-29T11:25:52;15.60;99.90
54429;DHT22;40337;52.978;6.310;2024-03-29T11:28:35;15.20;99.90
54429;DHT22;40337;52.978;6.310;2024-03-29T11:31:02;15.20;99.90
54429;DHT22;40337;52.978;6.310;2024-03-29T11:38:54;14.40;99.90
54429;DHT22;40337;52.978;6.310;2024-03-29T11:41:25;14.50;99.90
54429;DHT22;40337;52.978;6.310;2024-03-29T11:43:55;14.30;99.90
54429;DHT22;40337;52.978;6.310;2024-03-29T11:46:22;14.00;99.90
54429;DHT22;40337;52.978;6.310;2024-03-29T11:48:48;13.80;99.90
54429;DHT22;40337;52.978;6.310;2024-03-29T11:51:19;14.10;99.90
54429;DHT22;40337;52.978;6.310;2024-03-29T11:53:47;14.40;99.90
54429;DHT22;40337;52.978;6.310;2024-03-29T11:56:13;14.30;99.90
54429;DHT22;40337;52.978;6.310;2024-03-29T11:58:40;14.50;99.90
54429;DHT22;40337;52.978;6.310;2024-03-29T12:01:06;14.90;99.90
54429;DHT22;40337;52.978;6.310;2024-03-29T12:03:32;15.40;99.90
54429;DHT22;40337;52.978;6.310;2024-03-29T12:05:59;15.50;99.90
54429;DHT22;40337;52.978;6.310;2024-03-29T12:08:32;15.40;99.90
54429;DHT22;40337;52.978;6.310;2024-03-29T12:10:59;15.00;99.90
54429;DHT22;40337;52.978;6.310;2024-03-29T12:13:25;14.60;99.90
54429;DHT22;40337;52.978;6.310;2024-03-29T12:15:50;15.20;99.90
54429;DHT22;40337;52.978;6.310;2024-03-29T12:18:19;15.60;99.90
54429;DHT22;40337;52.978;6.310;2024-03-29T12:20:45;16.10;99.90
54429;DHT22;40337;52.978;6.310;2024-03-29T12:23:13;16.00;99.90
54429;DHT22;40337;52.978;6.310;2024-03-29T12:25:39;15.90;99.90
54429;DHT22;40337;52.978;6.310;2024-03-29T12:28:05;15.80;99.90
54429;DHT22;40337;52.978;6.310;2024-03-29T12:30:32;15.80;99.90
54429;DHT22;40337;52.978;6.310;2024-03-29T12:33:07;15.70;99.90
54429;DHT22;40337;52.978;6.310;2024-03-29T12:35:35;15.70;99.90
54429;DHT22;40337;52.978;6.310;2024-03-29T12:38:02;15.60;99.90
54429;DHT22;40337;52.978;6.310;2024-03-29T12:40:30;15.40;99.90
54429;DHT22;40337;52.978;6.310;2024-03-29T12:42:58;15.20;99.90
54429;DHT22;40337;52.978;6.310;2024-03-29T12:45:24;15.20;99.90
54429;DHT22;40337;52.978;6.310;2024-03-29T12:47:50;15.20;99.90
54429;DHT22;40337;52.978;6.310;2024-03-29T12:50:25;15.10;99.90
54429;DHT22;40337;52.978;6.310;2024-03-29T12:52:54;15.20;99.90
54429;DHT22;40337;52.978;6.310;2024-03-29T12:55:21;15.10;99.90
54429;DHT22;40337;52.978;6.310;2024-03-29T12:57:48;15.00;99.90
54429;DHT22;40337;52.978;6.310;2024-03-29T13:00:14;15.00;99.90
54429;DHT22;40337;52.978;6.310;2024-03-29T13:02:40;14.90;99.90
54429;DHT22;40337;52.978;6.310;2024-03-29T13:05:06;14.80;99.90
54429;DHT22;40337;52.978;6.310;2024-03-29T13:07:32;14.80;99.90
54429;DHT22;40337;52.978;6.310;2024-03-29T13:10:02;14.70;99.90
54429;DHT22;40337;52.978;6.310;2024-03-29T13:12:45;14.60;99.90
54429;DHT22;40337;52.978;6.310;2024-03-29T13:15:21;15.00;99.90
54429;DHT22;40337;52.978;6.310;2024-03-29T13:17:49;15.20;99.90
54429;DHT22;40337;52.978;6.310;2024-03-29T13:20:15;15.00;99.90
54429;DHT22;40337;52.978;6.310;2024-03-29T13:22:45;14.70;99.90
54429;DHT22;40337;52.978;6.310;2024-03-29T13:25:18;14.50;99.90
54429;DHT22;40337;52.978;6.310;2024-03-29T13:27:46;14.40;99.90
54429;DHT22;40337;52.978;6.310;2024-03-29T13:30:13;14.20;99.90
54429;DHT22;40337;52.978;6.310;2024-03-29T13:32:40;14.20;99.90
54429;DHT22;40337;52.978;6.310;2024-03-29T13:35:07;14.20;99.90
54429;DHT22;40337;52.978;6.310;2024-03-29T13:37:44;14.20;99.90
54429;DHT22;40337;52.978;6.310;2024-03-29T13:40:11;14.30;99.90
54429;DHT22;40337;52.978;6.310;2024-03-29T13:42:37;14.40;99.90
54429;DHT22;40337;52.978;6.310;2024-03-29T13:45:04;14.50;99.90
54429;DHT22;40337;52.978;6.310;2024-03-29T13:47:40;14.60;99.90
54429;DHT22;40337;52.978;6.310;2024-03-29T13:50:07;14.70;99.90
54429;DHT22;40337;52.978;6.310;2024-03-29T13:52:34;14.90;99.90
54429;DHT22;40337;52.978;6.310;2024-03-29T13:55:00;15.00;99.90
54429;DHT22;40337;52.978;6.310;2024-03-29T13:57:26;15.10;99.90
54429;DHT22;40337;52.978;6.310;2024-03-29T13:59:52;15.10;99.90
54429;DHT22;40337;52.978;6.310;2024-03-29T14:02:19;15.10;99.90
54429;DHT22;40337;52.978;6.310;2024-03-29T14:04:45;14.90;99.90
54429;DHT22;40337;52.978;6.310;2024-03-29T14:07:13;14.90;99.90
54429;DHT22;40337;52.978;6.310;2024-03-29T14:09:40;14.90;99.90
54429;DHT22;40337;52.978;6.310;2024-03-29T14:12:06;14.90;99.90
54429;DHT22;40337;52.978;6.310;2024-03-29T14:14:32;14.90;99.90
54429;DHT22;40337;52.978;6.310;2024-03-29T14:16:58;14.90;99.90
54429;DHT22;40337;52.978;6.310;2024-03-29T14:19:24;14.80;99.90
54429;DHT22;40337;52.978;6.310;2024-03-29T14:21:51;14.80;99.90
54429;DHT22;40337;52.978;6.310;2024-03-29T14:24:17;14.90;99.90
54429;DHT22;40337;52.978;6.310;2024-03-29T14:26:43;14.80;99.90
54429;DHT22;40337;52.978;6.310;2024-03-29T14:29:09;14.80;99.90
54429;DHT22;40337;52.978;6.310;2024-03-29T14:31:37;14.80;99.90
54429;DHT22;40337;52.978;6.310;2024-03-29T14:34:03;14.90;99.90
54429;DHT22;40337;52.978;6.310;2024-03-29T14:36:28;15.00;99.90
54429;DHT22;40337;52.978;6.310;2024-03-29T14:38:58;15.10;99.90
54429;DHT22;40337;52.978;6.310;2024-03-29T14:41:25;15.20;99.90
54429;DHT22;40337;52.978;6.310;2024-03-29T14:43:52;15.20;99.90
54429;DHT22;40337;52.978;6.310;2024-03-29T14:46:18;15.20;99.90
54429;DHT22;40337;52.978;6.310;2024-03-29T14:48:46;15.00;99.90
54429;DHT22;40337;52.978;6.310;2024-03-29T14:51:12;15.00;99.90
54429;DHT22;40337;52.978;6.310;2024-03-29T14:53:38;15.00;99.90
54429;DHT22;40337;52.978;6.310;2024-03-29T14:56:03;15.00;99.90
54429;DHT22;40337;52.978;6.310;2024-03-29T14:58:29;15.00;99.90
54429;DHT22;40337;52.978;6.310;2024-03-29T15:00:55;14.90;99.90
54429;DHT22;40337;52.978;6.310;2024-03-29T15:03:21;14.70;99.90
54429;DHT22;40337;52.978;6.310;2024-03-29T15:05:48;14.50;99.90
54429;DHT22;40337;52.978;6.310;2024-03-29T15:08:13;14.50;99.90
54429;DHT22;40337;52.978;6.310;2024-03-29T15:10:45;14.50;99.90
54429;DHT22;40337;52.978;6.310;2024-03-29T15:13:11;14.60;99.90
54429;DHT22;40337;52.978;6.310;2024-03-29T15:15:37;14.60;99.90
54429;DHT22;40337;52.978;6.310;2024-03-29T15:18:04;14.60;99.90
54429;DHT22;40337;52.978;6.310;2024-03-29T15:20:31;14.50;99.90
54429;DHT22;40337;52.978;6.310;2024-03-29T15:22:57;14.50;99.90
54429;DHT22;40337;52.978;6.310;2024-03-29T15:25:24;14.50;99.90
54429;DHT22;40337;52.978;6.310;2024-03-29T15:27:49;14.60;99.90
54429;DHT22;40337;52.978;6.310;2024-03-29T15:30:33;14.50;99.90
54429;DHT22;40337;52.978;6.310;2024-03-29T15:33:01;14.60;99.90
54429;DHT22;40337;52.978;6.310;2024-03-29T15:35:27;14.50;99.90
54429;DHT22;40337;52.978;6.310;2024-03-29T15:37:52;14.50;99.90
54429;DHT22;40337;52.978;6.310;2024-03-29T15:40:20;14.50;99.90
54429;DHT22;40337;52.978;6.310;2024-03-29T15:42:46;14.50;99.90
54429;DHT22;40337;52.978;6.310;2024-03-29T15:45:12;14.50;99.90
54429;DHT22;40337;52.978;6.310;2024-03-29T15:47:37;14.50;99.90
54429;DHT22;40337;52.978;6.310;2024-03-29T15:50:03;14.60;99.90